sensor_id;sensor_type;location;lat;lon;timestamp;P1;durP1;ratioP1;P2;durP2;ratioP2
13485;SDS011;6815;59.336;17.998;2022-12-29T00:02:09;8.53;;;4.57;;
13485;SDS011;6815;59.336;17.998;2022-12-29T00:04:35;8.90;;;4.63;;
13485;SDS011;6815;59.336;17.998;2022-12-29T00:07:00;8.60;;;4.73;;
13485;SDS011;6815;59.336;17.998;2022-12-29T00:09:26;10.63;;;5.27;;
13485;SDS011;6815;59.336;17.998;2022-12-29T00:11:51;8.87;;;4.70;;
13485;SDS011;6815;59.336;17.998;2022-12-29T00:14:17;9.37;;;4.83;;
13485;SDS011;6815;59.336;17.998;2022-12-29T00:17:02;8.63;;;4.43;;
13485;SDS011;6815;59.336;17.998;2022-12-29T00:19:29;9.53;;;4.97;;
13485;SDS011;6815;59.336;17.998;2022-12-29T00:22:13;7.97;;;4.97;;
13485;SDS011;6815;59.336;17.998;2022-12-29T00:24:58;9.30;;;4.90;;
13485;SDS011;6815;59.336;17.998;2022-12-29T00:27:43;9.90;;;5.00;;
13485;SDS011;6815;59.336;17.998;2022-12-29T00:30:27;9.20;;;4.90;;
13485;SDS011;6815;59.336;17.998;2022-12-29T00:33:12;9.57;;;4.77;;
13485;SDS011;6815;59.336;17.998;2022-12-29T00:36:02;8.33;;;4.60;;
13485;SDS011;6815;59.336;17.998;2022-12-29T00:38:35;9.03;;;5.30;;
13485;SDS011;6815;59.336;17.998;2022-12-29T00:41:21;9.87;;;5.00;;
13485;SDS011;6815;59.336;17.998;2022-12-29T00:44:06;8.73;;;5.03;;
13485;SDS011;6815;59.336;17.998;2022-12-29T00:46:38;11.53;;;4.87;;
13485;SDS011;6815;59.336;17.998;2022-12-29T00:49:09;9.90;;;4.97;;
13485;SDS011;6815;59.336;17.998;2022-12-29T00:51:55;12.60;;;5.10;;
13485;SDS011;6815;59.336;17.998;2022-12-29T00:54:24;9.23;;;4.73;;
13485;SDS011;6815;59.336;17.998;2022-12-29T00:56:50;8.30;;;4.73;;
13485;SDS011;6815;59.336;17.998;2022-12-29T00:59:17;9.53;;;4.57;;
13485;SDS011;6815;59.336;17.998;2022-12-29T01:01:43;9.47;;;4.97;;
13485;SDS011;6815;59.336;17.998;2022-12-29T01:04:10;9.93;;;5.37;;
13485;SDS011;6815;59.336;17.998;2022-12-29T01:06:38;9.73;;;5.00;;
13485;SDS011;6815;59.336;17.998;2022-12-29T01:09:07;9.20;;;4.80;;
13485;SDS011;6815;59.336;17.998;2022-12-29T01:11:52;9.93;;;4.50;;
13485;SDS011;6815;59.336;17.998;2022-12-29T01:14:18;9.67;;;4.83;;
13485;SDS011;6815;59.336;17.998;2022-12-29T01:16:44;13.90;;;5.40;;
13485;SDS011;6815;59.336;17.998;2022-12-29T01:19:11;8.93;;;4.50;;
13485;SDS011;6815;59.336;17.998;2022-12-29T01:21:37;8.90;;;4.37;;
13485;SDS011;6815;59.336;17.998;2022-12-29T01:24:03;8.13;;;4.40;;
13485;SDS011;6815;59.336;17.998;2022-12-29T01:26:30;10.70;;;4.70;;
13485;SDS011;6815;59.336;17.998;2022-12-29T01:28:55;9.73;;;4.17;;
13485;SDS011;6815;59.336;17.998;2022-12-29T01:31:20;9.60;;;4.27;;
13485;SDS011;6815;59.336;17.998;2022-12-29T01:33:47;7.27;;;4.17;;
13485;SDS011;6815;59.336;17.998;2022-12-29T01:36:14;8.33;;;4.30;;
13485;SDS011;6815;59.336;17.998;2022-12-29T01:38:41;8.13;;;4.37;;
13485;SDS011;6815;59.336;17.998;2022-12-29T01:41:08;8.20;;;4.40;;
13485;SDS011;6815;59.336;17.998;2022-12-29T01:43:55;9.70;;;4.80;;
13485;SDS011;6815;59.336;17.998;2022-12-29T01:46:35;11.63;;;5.50;;
13485;SDS011;6815;59.336;17.998;2022-12-29T01:51:40;11.40;;;5.00;;
13485;SDS011;6815;59.336;17.998;2022-12-29T01:54:12;9.60;;;5.00;;
13485;SDS011;6815;59.336;17.998;2022-12-29T01:56:44;11.23;;;4.60;;
13485;SDS011;6815;59.336;17.998;2022-12-29T01:59:12;8.00;;;4.30;;
13485;SDS011;6815;59.336;17.998;2022-12-29T02:01:43;8.87;;;4.40;;
13485;SDS011;6815;59.336;17.998;2022-12-29T02:04:09;8.97;;;4.00;;
13485;SDS011;6815;59.336;17.998;2022-12-29T02:06:39;9.93;;;4.70;;
13485;SDS011;6815;59.336;17.998;2022-12-29T02:09:31;9.43;;;4.20;;
13485;SDS011;6815;59.336;17.998;2022-12-29T02:11:57;8.37;;;4.13;;
13485;SDS011;6815;59.336;17.998;2022-12-29T02:14:23;7.50;;;4.23;;
13485;SDS011;6815;59.336;17.998;2022-12-29T02:16:56;7.87;;;4.07;;
13485;SDS011;6815;59.336;17.998;2022-12-29T02:23:12;8.43;;;4.43;;
13485;SDS011;6815;59.336;17.998;2022-12-29T02:31:46;9.27;;;4.83;;
13485;SDS011;6815;59.336;17.998;2022-12-29T02:46:11;9.00;;;4.63;;
13485;SDS011;6815;59.336;17.998;2022-12-29T02:48:52;10.90;;;4.70;;
13485;SDS011;6815;59.336;17.998;2022-12-29T02:51:52;9.63;;;4.93;;
13485;SDS011;6815;59.336;17.998;2022-12-29T02:54:25;8.70;;;4.70;;
13485;SDS011;6815;59.336;17.998;2022-12-29T02:59:57;8.80;;;4.43;;
13485;SDS011;6815;59.336;17.998;2022-12-29T03:11:33;13.07;;;5.47;;
13485;SDS011;6815;59.336;17.998;2022-12-29T03:20:08;14.13;;;6.07;;
13485;SDS011;6815;59.336;17.998;2022-12-29T03:22:39;10.23;;;6.20;;
13485;SDS011;6815;59.336;17.998;2022-12-29T03:25:14;13.63;;;5.30;;
13485;SDS011;6815;59.336;17.998;2022-12-29T03:27:55;13.00;;;5.57;;
13485;SDS011;6815;59.336;17.998;2022-12-29T03:30:24;13.37;;;5.73;;
13485;SDS011;6815;59.336;17.998;2022-12-29T03:32:58;15.37;;;6.13;;
13485;SDS011;6815;59.336;17.998;2022-12-29T03:35:28;11.63;;;6.00;;
13485;SDS011;6815;59.336;17.998;2022-12-29T03:40:59;11.07;;;6.60;;
13485;SDS011;6815;59.336;17.998;2022-12-29T03:43:30;13.83;;;6.10;;
13485;SDS011;6815;59.336;17.998;2022-12-29T03:45:56;13.67;;;7.30;;
13485;SDS011;6815;59.336;17.998;2022-12-29T03:48:22;14.17;;;7.40;;
13485;SDS011;6815;59.336;17.998;2022-12-29T03:50:49;12.07;;;6.63;;
13485;SDS011;6815;59.336;17.998;2022-12-29T03:53:14;12.57;;;7.50;;
13485;SDS011;6815;59.336;17.998;2022-12-29T03:55:40;13.03;;;7.00;;
13485;SDS011;6815;59.336;17.998;2022-12-29T03:58:06;12.97;;;7.30;;
13485;SDS011;6815;59.336;17.998;2022-12-29T04:00:31;16.40;;;6.60;;
13485;SDS011;6815;59.336;17.998;2022-12-29T04:02:57;11.63;;;6.83;;
13485;SDS011;6815;59.336;17.998;2022-12-29T04:05:22;11.93;;;7.00;;
13485;SDS011;6815;59.336;17.998;2022-12-29T04:07:48;12.37;;;6.57;;
13485;SDS011;6815;59.336;17.998;2022-12-29T04:10:13;11.53;;;6.87;;
13485;SDS011;6815;59.336;17.998;2022-12-29T04:12:39;11.30;;;7.23;;
13485;SDS011;6815;59.336;17.998;2022-12-29T04:15:07;12.40;;;6.70;;
13485;SDS011;6815;59.336;17.998;2022-12-29T04:17:34;10.33;;;6.60;;
13485;SDS011;6815;59.336;17.998;2022-12-29T04:20:00;13.17;;;7.43;;
13485;SDS011;6815;59.336;17.998;2022-12-29T04:22:44;11.60;;;7.37;;
13485;SDS011;6815;59.336;17.998;2022-12-29T04:25:09;11.63;;;6.90;;
13485;SDS011;6815;59.336;17.998;2022-12-29T04:27:36;11.43;;;6.63;;
13485;SDS011;6815;59.336;17.998;2022-12-29T04:30:02;10.60;;;6.60;;
13485;SDS011;6815;59.336;17.998;2022-12-29T04:32:28;10.73;;;7.43;;
13485;SDS011;6815;59.336;17.998;2022-12-29T04:34:54;10.70;;;7.30;;
13485;SDS011;6815;59.336;17.998;2022-12-29T04:37:19;9.57;;;6.93;;
13485;SDS011;6815;59.336;17.998;2022-12-29T04:39:45;10.33;;;6.63;;
13485;SDS011;6815;59.336;17.998;2022-12-29T04:42:10;12.03;;;6.60;;
13485;SDS011;6815;59.336;17.998;2022-12-29T04:44:37;9.00;;;6.90;;
13485;SDS011;6815;59.336;17.998;2022-12-29T04:47:03;12.07;;;7.13;;
13485;SDS011;6815;59.336;17.998;2022-12-29T04:49:28;12.03;;;7.60;;
13485;SDS011;6815;59.336;17.998;2022-12-29T04:51:54;14.87;;;7.23;;
13485;SDS011;6815;59.336;17.998;2022-12-29T04:54:19;10.07;;;7.13;;
13485;SDS011;6815;59.336;17.998;2022-12-29T04:56:45;10.37;;;7.53;;
13485;SDS011;6815;59.336;17.998;2022-12-29T04:59:14;10.67;;;7.20;;
13485;SDS011;6815;59.336;17.998;2022-12-29T05:01:40;10.90;;;7.07;;
13485;SDS011;6815;59.336;17.998;2022-12-29T05:04:07;8.90;;;7.30;;
13485;SDS011;6815;59.336;17.998;2022-12-29T05:06:33;11.73;;;7.07;;
13485;SDS011;6815;59.336;17.998;2022-12-29T05:08:59;11.57;;;7.00;;
13485;SDS011;6815;59.336;17.998;2022-12-29T05:11:25;11.17;;;7.53;;
13485;SDS011;6815;59.336;17.998;2022-12-29T05:13:52;9.37;;;6.53;;
13485;SDS011;6815;59.336;17.998;2022-12-29T05:16:17;9.90;;;7.00;;
13485;SDS011;6815;59.336;17.998;2022-12-29T05:18:43;10.30;;;7.23;;
13485;SDS011;6815;59.336;17.998;2022-12-29T05:21:09;11.90;;;7.23;;
13485;SDS011;6815;59.336;17.998;2022-12-29T05:23:38;9.33;;;6.73;;
13485;SDS011;6815;59.336;17.998;2022-12-29T05:26:04;17.43;;;7.43;;
13485;SDS011;6815;59.336;17.998;2022-12-29T05:28:31;15.70;;;7.27;;
13485;SDS011;6815;59.336;17.998;2022-12-29T05:30:56;10.40;;;6.73;;
13485;SDS011;6815;59.336;17.998;2022-12-29T05:33:23;15.90;;;7.80;;
13485;SDS011;6815;59.336;17.998;2022-12-29T05:35:48;13.47;;;7.03;;
13485;SDS011;6815;59.336;17.998;2022-12-29T05:38:14;11.07;;;7.23;;
13485;SDS011;6815;59.336;17.998;2022-12-29T05:40:39;12.77;;;7.00;;
13485;SDS011;6815;59.336;17.998;2022-12-29T05:43:05;10.77;;;6.00;;
13485;SDS011;6815;59.336;17.998;2022-12-29T05:45:30;11.47;;;6.90;;
13485;SDS011;6815;59.336;17.998;2022-12-29T05:47:57;10.50;;;6.87;;
13485;SDS011;6815;59.336;17.998;2022-12-29T05:50:22;10.47;;;6.37;;
13485;SDS011;6815;59.336;17.998;2022-12-29T05:52:48;9.70;;;6.30;;
13485;SDS011;6815;59.336;17.998;2022-12-29T05:55:13;9.17;;;6.03;;
13485;SDS011;6815;59.336;17.998;2022-12-29T05:57:40;14.53;;;6.73;;
13485;SDS011;6815;59.336;17.998;2022-12-29T06:00:05;11.83;;;6.67;;
13485;SDS011;6815;59.336;17.998;2022-12-29T06:02:32;13.53;;;6.77;;
13485;SDS011;6815;59.336;17.998;2022-12-29T06:04:57;10.37;;;6.33;;
13485;SDS011;6815;59.336;17.998;2022-12-29T06:07:23;12.57;;;6.67;;
13485;SDS011;6815;59.336;17.998;2022-12-29T06:09:48;13.17;;;6.20;;
13485;SDS011;6815;59.336;17.998;2022-12-29T06:12:14;11.80;;;6.67;;
13485;SDS011;6815;59.336;17.998;2022-12-29T06:14:39;8.53;;;6.03;;
13485;SDS011;6815;59.336;17.998;2022-12-29T06:17:05;9.63;;;6.37;;
13485;SDS011;6815;59.336;17.998;2022-12-29T06:19:30;8.13;;;5.63;;
13485;SDS011;6815;59.336;17.998;2022-12-29T06:21:56;9.37;;;6.10;;
13485;SDS011;6815;59.336;17.998;2022-12-29T06:24:22;8.23;;;5.87;;
13485;SDS011;6815;59.336;17.998;2022-12-29T06:26:47;12.67;;;6.67;;
13485;SDS011;6815;59.336;17.998;2022-12-29T06:29:13;12.83;;;6.00;;
13485;SDS011;6815;59.336;17.998;2022-12-29T06:31:42;10.63;;;6.30;;
13485;SDS011;6815;59.336;17.998;2022-12-29T06:34:09;13.00;;;6.57;;
13485;SDS011;6815;59.336;17.998;2022-12-29T06:36:35;14.77;;;6.70;;
13485;SDS011;6815;59.336;17.998;2022-12-29T06:39:01;12.37;;;6.33;;
13485;SDS011;6815;59.336;17.998;2022-12-29T06:41:27;12.57;;;6.40;;
13485;SDS011;6815;59.336;17.998;2022-12-29T06:43:52;13.87;;;6.37;;
13485;SDS011;6815;59.336;17.998;2022-12-29T06:46:18;13.13;;;6.60;;
13485;SDS011;6815;59.336;17.998;2022-12-29T06:48:45;14.67;;;6.77;;
13485;SDS011;6815;59.336;17.998;2022-12-29T06:51:11;13.63;;;6.67;;
13485;SDS011;6815;59.336;17.998;2022-12-29T06:53:36;12.17;;;6.47;;
13485;SDS011;6815;59.336;17.998;2022-12-29T06:56:03;11.87;;;6.57;;
13485;SDS011;6815;59.336;17.998;2022-12-29T06:58:30;12.50;;;6.67;;
13485;SDS011;6815;59.336;17.998;2022-12-29T07:00:55;14.13;;;7.00;;
13485;SDS011;6815;59.336;17.998;2022-12-29T07:03:26;18.00;;;7.83;;
13485;SDS011;6815;59.336;17.998;2022-12-29T07:05:54;13.77;;;7.50;;
13485;SDS011;6815;59.336;17.998;2022-12-29T07:08:23;15.80;;;7.57;;
13485;SDS011;6815;59.336;17.998;2022-12-29T07:10:49;15.50;;;8.40;;
13485;SDS011;6815;59.336;17.998;2022-12-29T07:13:14;16.80;;;7.80;;
13485;SDS011;6815;59.336;17.998;2022-12-29T07:15:41;18.03;;;8.50;;
13485;SDS011;6815;59.336;17.998;2022-12-29T07:18:07;17.60;;;8.87;;
13485;SDS011;6815;59.336;17.998;2022-12-29T07:20:32;14.70;;;7.97;;
13485;SDS011;6815;59.336;17.998;2022-12-29T07:22:58;15.60;;;8.83;;
13485;SDS011;6815;59.336;17.998;2022-12-29T07:25:23;20.27;;;9.43;;
13485;SDS011;6815;59.336;17.998;2022-12-29T07:27:49;20.03;;;9.40;;
13485;SDS011;6815;59.336;17.998;2022-12-29T07:30:14;22.37;;;9.97;;
13485;SDS011;6815;59.336;17.998;2022-12-29T07:32:40;21.33;;;9.70;;
13485;SDS011;6815;59.336;17.998;2022-12-29T07:35:07;20.00;;;9.37;;
13485;SDS011;6815;59.336;17.998;2022-12-29T07:37:33;23.53;;;9.50;;
13485;SDS011;6815;59.336;17.998;2022-12-29T07:39:59;28.83;;;10.63;;
13485;SDS011;6815;59.336;17.998;2022-12-29T07:42:25;25.27;;;10.27;;
13485;SDS011;6815;59.336;17.998;2022-12-29T07:44:51;23.60;;;10.53;;
13485;SDS011;6815;59.336;17.998;2022-12-29T07:47:17;16.47;;;9.50;;
13485;SDS011;6815;59.336;17.998;2022-12-29T07:49:45;21.37;;;10.07;;
13485;SDS011;6815;59.336;17.998;2022-12-29T07:52:14;18.50;;;9.30;;
13485;SDS011;6815;59.336;17.998;2022-12-29T07:54:39;18.40;;;9.20;;
13485;SDS011;6815;59.336;17.998;2022-12-29T07:57:05;22.10;;;9.70;;
13485;SDS011;6815;59.336;17.998;2022-12-29T07:59:31;21.50;;;8.83;;
13485;SDS011;6815;59.336;17.998;2022-12-29T08:01:57;20.03;;;8.33;;
13485;SDS011;6815;59.336;17.998;2022-12-29T08:04:22;17.70;;;8.30;;
13485;SDS011;6815;59.336;17.998;2022-12-29T08:06:48;15.80;;;8.37;;
13485;SDS011;6815;59.336;17.998;2022-12-29T08:09:13;18.97;;;8.50;;
13485;SDS011;6815;59.336;17.998;2022-12-29T08:11:39;17.60;;;7.90;;
13485;SDS011;6815;59.336;17.998;2022-12-29T08:14:05;13.83;;;6.80;;
13485;SDS011;6815;59.336;17.998;2022-12-29T08:16:31;16.43;;;8.50;;
13485;SDS011;6815;59.336;17.998;2022-12-29T08:18:57;17.47;;;7.00;;
13485;SDS011;6815;59.336;17.998;2022-12-29T08:21:24;14.10;;;7.60;;
13485;SDS011;6815;59.336;17.998;2022-12-29T08:23:49;13.73;;;5.93;;
13485;SDS011;6815;59.336;17.998;2022-12-29T08:26:15;18.37;;;6.10;;
13485;SDS011;6815;59.336;17.998;2022-12-29T08:28:40;11.47;;;5.30;;
13485;SDS011;6815;59.336;17.998;2022-12-29T08:31:06;12.23;;;5.23;;
13485;SDS011;6815;59.336;17.998;2022-12-29T08:33:31;9.87;;;5.20;;
13485;SDS011;6815;59.336;17.998;2022-12-29T08:36:03;13.73;;;5.60;;
13485;SDS011;6815;59.336;17.998;2022-12-29T08:38:30;8.87;;;4.87;;
13485;SDS011;6815;59.336;17.998;2022-12-29T08:40:57;10.63;;;5.13;;
13485;SDS011;6815;59.336;17.998;2022-12-29T08:43:24;7.13;;;4.57;;
13485;SDS011;6815;59.336;17.998;2022-12-29T08:45:49;8.33;;;4.80;;
13485;SDS011;6815;59.336;17.998;2022-12-29T08:48:17;9.03;;;4.80;;
13485;SDS011;6815;59.336;17.998;2022-12-29T08:50:44;9.37;;;5.73;;
13485;SDS011;6815;59.336;17.998;2022-12-29T08:53:12;9.17;;;5.13;;
13485;SDS011;6815;59.336;17.998;2022-12-29T08:55:37;7.93;;;5.37;;
13485;SDS011;6815;59.336;17.998;2022-12-29T08:58:04;10.70;;;5.80;;
13485;SDS011;6815;59.336;17.998;2022-12-29T09:00:30;8.30;;;5.23;;
13485;SDS011;6815;59.336;17.998;2022-12-29T09:02:55;8.53;;;5.40;;
13485;SDS011;6815;59.336;17.998;2022-12-29T09:05:21;7.40;;;4.87;;
13485;SDS011;6815;59.336;17.998;2022-12-29T09:07:47;7.57;;;4.70;;
13485;SDS011;6815;59.336;17.998;2022-12-29T09:10:13;9.23;;;4.30;;
13485;SDS011;6815;59.336;17.998;2022-12-29T09:12:38;6.10;;;3.93;;
13485;SDS011;6815;59.336;17.998;2022-12-29T09:15:04;6.10;;;4.17;;
13485;SDS011;6815;59.336;17.998;2022-12-29T09:17:31;7.47;;;4.10;;
13485;SDS011;6815;59.336;17.998;2022-12-29T09:20:11;7.53;;;3.77;;
13485;SDS011;6815;59.336;17.998;2022-12-29T09:22:38;6.60;;;3.40;;
13485;SDS011;6815;59.336;17.998;2022-12-29T09:25:03;7.07;;;3.90;;
13485;SDS011;6815;59.336;17.998;2022-12-29T09:27:30;6.30;;;3.17;;
13485;SDS011;6815;59.336;17.998;2022-12-29T09:29:56;3.60;;;2.27;;
13485;SDS011;6815;59.336;17.998;2022-12-29T09:32:22;4.93;;;2.30;;
13485;SDS011;6815;59.336;17.998;2022-12-29T09:34:47;6.43;;;2.33;;
13485;SDS011;6815;59.336;17.998;2022-12-29T09:37:13;5.10;;;2.40;;
13485;SDS011;6815;59.336;17.998;2022-12-29T09:39:40;3.97;;;2.53;;
13485;SDS011;6815;59.336;17.998;2022-12-29T09:42:13;1.80;;;1.70;;
13485;SDS011;6815;59.336;17.998;2022-12-29T09:47:31;4.73;;;2.33;;
13485;SDS011;6815;59.336;17.998;2022-12-29T09:50:10;4.30;;;2.40;;
13485;SDS011;6815;59.336;17.998;2022-12-29T09:52:50;3.13;;;2.57;;
13485;SDS011;6815;59.336;17.998;2022-12-29T09:55:22;4.67;;;2.80;;
13485;SDS011;6815;59.336;17.998;2022-12-29T09:57:56;4.17;;;3.17;;
13485;SDS011;6815;59.336;17.998;2022-12-29T10:01:00;4.80;;;3.40;;
13485;SDS011;6815;59.336;17.998;2022-12-29T10:06:13;7.80;;;4.43;;
13485;SDS011;6815;59.336;17.998;2022-12-29T10:08:52;7.57;;;4.77;;
13485;SDS011;6815;59.336;17.998;2022-12-29T10:22:53;8.77;;;5.20;;
13485;SDS011;6815;59.336;17.998;2022-12-29T10:25:41;14.13;;;5.27;;
13485;SDS011;6815;59.336;17.998;2022-12-29T10:28:50;7.37;;;5.50;;
13485;SDS011;6815;59.336;17.998;2022-12-29T10:31:13;9.93;;;5.90;;
13485;SDS011;6815;59.336;17.998;2022-12-29T10:34:00;10.97;;;5.27;;
13485;SDS011;6815;59.336;17.998;2022-12-29T10:36:35;8.67;;;5.40;;
13485;SDS011;6815;59.336;17.998;2022-12-29T10:39:14;7.90;;;4.83;;
13485;SDS011;6815;59.336;17.998;2022-12-29T10:41:49;10.90;;;5.57;;
13485;SDS011;6815;59.336;17.998;2022-12-29T10:44:20;8.10;;;4.87;;
13485;SDS011;6815;59.336;17.998;2022-12-29T10:46:55;7.17;;;4.23;;
13485;SDS011;6815;59.336;17.998;2022-12-29T10:49:25;5.83;;;4.33;;
13485;SDS011;6815;59.336;17.998;2022-12-29T10:51:54;6.57;;;4.23;;
13485;SDS011;6815;59.336;17.998;2022-12-29T10:54:25;6.77;;;4.07;;
13485;SDS011;6815;59.336;17.998;2022-12-29T10:59:53;6.73;;;4.13;;
13485;SDS011;6815;59.336;17.998;2022-12-29T11:08:02;5.00;;;3.57;;
13485;SDS011;6815;59.336;17.998;2022-12-29T11:10:37;6.27;;;3.17;;
13485;SDS011;6815;59.336;17.998;2022-12-29T11:13:16;4.43;;;3.17;;
13485;SDS011;6815;59.336;17.998;2022-12-29T11:15:44;3.93;;;3.03;;
13485;SDS011;6815;59.336;17.998;2022-12-29T11:18:30;4.40;;;3.30;;
13485;SDS011;6815;59.336;17.998;2022-12-29T11:21:06;4.23;;;2.70;;
13485;SDS011;6815;59.336;17.998;2022-12-29T11:23:55;5.70;;;3.30;;
13485;SDS011;6815;59.336;17.998;2022-12-29T11:26:23;5.50;;;3.10;;
13485;SDS011;6815;59.336;17.998;2022-12-29T11:31:54;4.43;;;2.70;;
13485;SDS011;6815;59.336;17.998;2022-12-29T11:34:32;3.60;;;2.40;;
13485;SDS011;6815;59.336;17.998;2022-12-29T11:37:03;4.60;;;3.13;;
13485;SDS011;6815;59.336;17.998;2022-12-29T11:39:40;3.70;;;2.90;;
13485;SDS011;6815;59.336;17.998;2022-12-29T11:42:20;3.50;;;2.73;;
13485;SDS011;6815;59.336;17.998;2022-12-29T11:44:55;4.07;;;3.37;;
13485;SDS011;6815;59.336;17.998;2022-12-29T11:47:23;3.63;;;2.93;;
13485;SDS011;6815;59.336;17.998;2022-12-29T11:50:02;3.87;;;2.97;;
13485;SDS011;6815;59.336;17.998;2022-12-29T11:52:35;4.73;;;3.10;;
13485;SDS011;6815;59.336;17.998;2022-12-29T11:55:05;4.20;;;2.93;;
13485;SDS011;6815;59.336;17.998;2022-12-29T11:57:41;5.77;;;3.40;;
13485;SDS011;6815;59.336;17.998;2022-12-29T12:00:16;4.13;;;3.37;;
13485;SDS011;6815;59.336;17.998;2022-12-29T12:02:54;4.97;;;3.67;;
13485;SDS011;6815;59.336;17.998;2022-12-29T12:05:24;4.73;;;3.63;;
13485;SDS011;6815;59.336;17.998;2022-12-29T12:08:09;5.03;;;3.57;;
13485;SDS011;6815;59.336;17.998;2022-12-29T12:10:43;4.03;;;3.57;;
13485;SDS011;6815;59.336;17.998;2022-12-29T12:15:59;5.83;;;3.97;;
13485;SDS011;6815;59.336;17.998;2022-12-29T12:23:56;5.20;;;3.63;;
13485;SDS011;6815;59.336;17.998;2022-12-29T12:26:30;5.93;;;3.53;;
13485;SDS011;6815;59.336;17.998;2022-12-29T12:29:10;5.07;;;3.50;;
13485;SDS011;6815;59.336;17.998;2022-12-29T12:31:45;6.80;;;4.23;;
13485;SDS011;6815;59.336;17.998;2022-12-29T12:34:20;4.03;;;3.50;;
13485;SDS011;6815;59.336;17.998;2022-12-29T12:37:02;4.50;;;2.93;;
13485;SDS011;6815;59.336;17.998;2022-12-29T12:39:43;3.80;;;3.33;;
13485;SDS011;6815;59.336;17.998;2022-12-29T12:45:17;3.20;;;2.90;;
13485;SDS011;6815;59.336;17.998;2022-12-29T12:59:42;6.17;;;3.10;;
13485;SDS011;6815;59.336;17.998;2022-12-29T13:05:25;3.40;;;2.57;;
13485;SDS011;6815;59.336;17.998;2022-12-29T13:08:10;4.27;;;3.27;;
13485;SDS011;6815;59.336;17.998;2022-12-29T13:13:40;3.43;;;3.00;;
13485;SDS011;6815;59.336;17.998;2022-12-29T13:19:02;2.93;;;2.70;;
13485;SDS011;6815;59.336;17.998;2022-12-29T13:26:51;4.47;;;3.30;;
13485;SDS011;6815;59.336;17.998;2022-12-29T13:29:35;3.40;;;3.10;;
13485;SDS011;6815;59.336;17.998;2022-12-29T13:32:15;5.17;;;2.97;;
13485;SDS011;6815;59.336;17.998;2022-12-29T13:34:56;3.87;;;3.17;;
13485;SDS011;6815;59.336;17.998;2022-12-29T13:37:35;2.97;;;2.60;;
13485;SDS011;6815;59.336;17.998;2022-12-29T13:40:32;3.10;;;2.80;;
13485;SDS011;6815;59.336;17.998;2022-12-29T13:43:04;3.87;;;2.87;;
13485;SDS011;6815;59.336;17.998;2022-12-29T13:45:31;3.20;;;2.60;;
13485;SDS011;6815;59.336;17.998;2022-12-29T13:48:05;2.50;;;2.10;;
13485;SDS011;6815;59.336;17.998;2022-12-29T13:50:36;3.50;;;2.63;;
13485;SDS011;6815;59.336;17.998;2022-12-29T13:53:14;2.90;;;2.30;;
13485;SDS011;6815;59.336;17.998;2022-12-29T13:55:57;3.63;;;1.87;;
13485;SDS011;6815;59.336;17.998;2022-12-29T13:58:37;3.90;;;2.00;;
13485;SDS011;6815;59.336;17.998;2022-12-29T14:01:35;4.20;;;2.07;;
13485;SDS011;6815;59.336;17.998;2022-12-29T14:04:24;3.77;;;2.17;;
13485;SDS011;6815;59.336;17.998;2022-12-29T14:07:05;2.30;;;2.10;;
13485;SDS011;6815;59.336;17.998;2022-12-29T14:09:46;3.97;;;2.03;;
13485;SDS011;6815;59.336;17.998;2022-12-29T14:14:49;3.47;;;2.20;;
13485;SDS011;6815;59.336;17.998;2022-12-29T14:17:17;2.70;;;2.10;;
13485;SDS011;6815;59.336;17.998;2022-12-29T14:19:45;2.00;;;1.90;;
13485;SDS011;6815;59.336;17.998;2022-12-29T14:22:22;3.53;;;1.90;;
13485;SDS011;6815;59.336;17.998;2022-12-29T14:24:50;2.77;;;2.03;;
13485;SDS011;6815;59.336;17.998;2022-12-29T14:34:45;4.13;;;2.53;;
13485;SDS011;6815;59.336;17.998;2022-12-29T14:37:31;4.37;;;2.50;;
13485;SDS011;6815;59.336;17.998;2022-12-29T14:40:23;4.03;;;2.40;;
13485;SDS011;6815;59.336;17.998;2022-12-29T14:42:47;4.77;;;2.50;;
13485;SDS011;6815;59.336;17.998;2022-12-29T14:47:44;3.40;;;2.40;;
13485;SDS011;6815;59.336;17.998;2022-12-29T14:52:59;6.23;;;3.50;;
13485;SDS011;6815;59.336;17.998;2022-12-29T15:00:43;7.47;;;4.70;;
13485;SDS011;6815;59.336;17.998;2022-12-29T15:03:24;6.10;;;5.17;;
13485;SDS011;6815;59.336;17.998;2022-12-29T15:06:09;9.43;;;5.77;;
13485;SDS011;6815;59.336;17.998;2022-12-29T15:08:39;6.67;;;5.10;;
13485;SDS011;6815;59.336;17.998;2022-12-29T15:11:20;7.40;;;5.60;;
13485;SDS011;6815;59.336;17.998;2022-12-29T15:13:48;9.60;;;6.17;;
13485;SDS011;6815;59.336;17.998;2022-12-29T15:18:57;11.47;;;6.00;;
13485;SDS011;6815;59.336;17.998;2022-12-29T15:21:34;7.47;;;5.83;;
13485;SDS011;6815;59.336;17.998;2022-12-29T15:24:02;7.50;;;6.00;;
13485;SDS011;6815;59.336;17.998;2022-12-29T15:26:38;7.73;;;5.23;;
13485;SDS011;6815;59.336;17.998;2022-12-29T15:32:01;6.77;;;4.97;;
13485;SDS011;6815;59.336;17.998;2022-12-29T15:34:41;7.73;;;5.50;;
13485;SDS011;6815;59.336;17.998;2022-12-29T15:37:08;8.20;;;5.33;;
13485;SDS011;6815;59.336;17.998;2022-12-29T15:39:34;6.03;;;4.97;;
13485;SDS011;6815;59.336;17.998;2022-12-29T15:42:07;5.77;;;4.30;;
13485;SDS011;6815;59.336;17.998;2022-12-29T15:44:42;5.87;;;3.67;;
13485;SDS011;6815;59.336;17.998;2022-12-29T15:47:14;5.30;;;4.33;;
13485;SDS011;6815;59.336;17.998;2022-12-29T15:49:52;5.43;;;3.80;;
13485;SDS011;6815;59.336;17.998;2022-12-29T15:52:22;4.13;;;3.40;;
13485;SDS011;6815;59.336;17.998;2022-12-29T15:54:49;4.17;;;2.97;;
13485;SDS011;6815;59.336;17.998;2022-12-29T15:57:22;4.67;;;3.10;;
13485;SDS011;6815;59.336;17.998;2022-12-29T15:59:57;3.80;;;3.03;;
13485;SDS011;6815;59.336;17.998;2022-12-29T16:02:22;4.73;;;3.03;;
13485;SDS011;6815;59.336;17.998;2022-12-29T16:04:51;4.77;;;2.97;;
13485;SDS011;6815;59.336;17.998;2022-12-29T16:07:25;4.47;;;3.10;;
13485;SDS011;6815;59.336;17.998;2022-12-29T16:09:58;4.40;;;3.00;;
13485;SDS011;6815;59.336;17.998;2022-12-29T16:12:28;3.50;;;2.80;;
13485;SDS011;6815;59.336;17.998;2022-12-29T16:15:00;2.83;;;2.40;;
13485;SDS011;6815;59.336;17.998;2022-12-29T16:17:29;3.60;;;2.70;;
13485;SDS011;6815;59.336;17.998;2022-12-29T16:20:04;3.10;;;2.80;;
13485;SDS011;6815;59.336;17.998;2022-12-29T16:22:46;5.10;;;3.00;;
13485;SDS011;6815;59.336;17.998;2022-12-29T16:27:49;6.10;;;3.30;;
13485;SDS011;6815;59.336;17.998;2022-12-29T16:32:46;4.07;;;3.20;;
13485;SDS011;6815;59.336;17.998;2022-12-29T16:37:46;7.33;;;4.17;;
13485;SDS011;6815;59.336;17.998;2022-12-29T16:43:18;6.37;;;3.60;;
13485;SDS011;6815;59.336;17.998;2022-12-29T16:48:18;4.40;;;3.73;;
13485;SDS011;6815;59.336;17.998;2022-12-29T16:50:46;6.93;;;4.77;;
13485;SDS011;6815;59.336;17.998;2022-12-29T16:55:53;7.53;;;4.73;;
13485;SDS011;6815;59.336;17.998;2022-12-29T16:58:24;4.50;;;4.10;;
13485;SDS011;6815;59.336;17.998;2022-12-29T17:00:54;6.13;;;4.80;;
13485;SDS011;6815;59.336;17.998;2022-12-29T17:03:21;6.07;;;4.87;;
13485;SDS011;6815;59.336;17.998;2022-12-29T17:05:48;6.27;;;4.63;;
13485;SDS011;6815;59.336;17.998;2022-12-29T17:08:17;5.63;;;4.73;;
13485;SDS011;6815;59.336;17.998;2022-12-29T17:10:51;5.70;;;4.73;;
13485;SDS011;6815;59.336;17.998;2022-12-29T17:13:38;6.57;;;4.63;;
13485;SDS011;6815;59.336;17.998;2022-12-29T17:16:09;8.80;;;4.73;;
13485;SDS011;6815;59.336;17.998;2022-12-29T17:18:35;7.40;;;4.33;;
13485;SDS011;6815;59.336;17.998;2022-12-29T17:21:01;6.00;;;4.70;;
13485;SDS011;6815;59.336;17.998;2022-12-29T17:23:27;8.10;;;4.33;;
13485;SDS011;6815;59.336;17.998;2022-12-29T17:25:54;6.57;;;4.53;;
13485;SDS011;6815;59.336;17.998;2022-12-29T17:28:24;5.63;;;4.17;;
13485;SDS011;6815;59.336;17.998;2022-12-29T17:30:52;7.00;;;4.37;;
13485;SDS011;6815;59.336;17.998;2022-12-29T17:33:20;8.07;;;4.70;;
13485;SDS011;6815;59.336;17.998;2022-12-29T17:35:49;7.27;;;4.37;;
13485;SDS011;6815;59.336;17.998;2022-12-29T17:38:22;6.57;;;4.30;;